Ext Town Park, Puerto Rico
Current Conditions -  °F | °C
As of 11:56 AM on Monday 26 Jan 2015 (Local Time) from TJSJ Reporting Station
Scattered Clouds Scattered Clouds  
Wind Chill: 85°   Ceiling: Unl
Heat Index: 88°   Visibility: 10mi
Dew Point: 68°   Wind: 16mph
Humidity: 57%   Direction: 80°E
Pressure: 30.01"   Gusts: NA
Location:  18.4051°N, 66.0126°W
Report Text: TJSJ 261556Z 08014KT 10SM FEW035 SCT080 29/20 A3001 RMK AO2 SLP162 T02940200
Loading
Personal Weather Stations






























Interactive Weather Map New forecast layout! Learn more

10-Day Weather Forecast

Advertisements
Track Severe Weather on mobile